Terminal Aerodrome Forecast
Issued by NWS

Home | Current Version | Previous Version | Text Only | Print | Product List | Glossary On
Versions: 1 2 3 4 5 6 7 8 9 10 11 12 13 14 15
000
FTUS45 KTFX 101741
TAFLWT
TAF
KLWT 101741Z 1018/1118 VRB06KT P6SM VCSH SCT035 OVC060
      TEMPO 1018/1020 4SM -SN BR BKN025
     FM102000 VRB06KT 5SM -SN SCT008 OVC015
      TEMPO 1020/1024 2SM -SN BR BKN008
     FM110100 28007KT P6SM VCSH SCT015 BKN025
     FM110400 27007KT P6SM SCT020 BKN035
     FM110600 24006KT P6SM SCT050 BKN180
     FM111500 21007KT P6SM VCSH SCT035 BKN050=

USA.gov is the U.S. government's official web portal to all federal, state and local government web resources and services.